Airfield :
LOGIN :

Register | Disclaimer

   EN    FR    IT 

 










Legend :    VFR   Marginal VFR   IFR   Intensive IFR   Very Intensive IFR
Visi :
Ceiling :
>= 8 km
>= 3000ft
5 to 8 km
1000 to 3000 ft
1500m to 5 km
500 to 1000 ft
800 to 1500m
200 to 500 ft
< 800m
< 200 ft
Symbols :   Thunderstorms  Fog  Heavy snow  Heavy precipitations  Wind > 20 kt
SIGMETs :     Misc.  Thunderstorms  Icing  Turbulence  Mountain Waves  Volcanic Ashes







- Airport Elevation : 1302 ft
- IATA code : GNB
- Download approach charts


LFLS - Grenoble / St. Geoirs

CURRENT METAR :
  • 151130Z AUTO 08010KT CAVOK 14/08 Q1024 NOSIG

EXPIRED METARs :
  • 151100Z AUTO 08012KT CAVOK 14/08 Q1024 BECMG VRB02KT
  • 151030Z AUTO 07010KT CAVOK 13/08 Q1025 NOSIG
  • 151000Z AUTO 08012KT CAVOK 12/08 Q1025 BECMG VRB02KT
  • 150930Z AUTO 07012KT CAVOK 12/08 Q1025 BECMG VRB02KT
  • 150900Z AUTO 08012KT CAVOK 12/08 Q1025 BECMG VRB02KT

TAF AMD TAF LFLS
Valid from the 15 at 11:00 until the 16 at 09:00 UTC


151116Z 1511/1609 09008KT CAVOK
TEMPO 1511/1516 VRB02KT
BECMG 1603/1605 VRB02KT 3000 BR
PROB30
TEMPO 1605/1609 0400 FG VV///
ATIS : +33 4 76 65 55 89
No reported NOTAMs for that airfield.



MET'MAP, your aeronautical weather chart ! - Copyright ORBIFLY December 2007 - Disclaimer

ORBIFLY MET'MAP TEAM :

Programming & Development : Alexandra Zaïnal
Concept & Development : Baudouin d'Aumeries
Co-Development & Prog : Marc-Olivier Méhu
Technical & hardware support : Manuel Goepfert

Contact : metmap@orbifly.com




SOURCES & CREDITS :

   NOAA